Map

Track Data

SID SEASON NUMBER BASIN SUBBASIN NAME ISO_TIME NATURE LAT LON WMO_WIND WMO_PRES WMO_AGENCY TRACK_TYPE DIST2LAND LANDFALL IFLAG USA_AGENCY USA_ATCF_ID USA_LAT USA_LON USA_RECORD USA_STATUS USA_WIND USA_PRES USA_SSHS USA_R34_NE USA_R34_SE USA_R34_SW USA_R34_NW USA_R50_NE USA_R50_SE USA_R50_SW USA_R50_NW USA_R64_NE USA_R64_SE USA_R64_SW USA_R64_NW USA_POCI USA_ROCI USA_RMW USA_EYE TOKYO_LAT TOKYO_LON TOKYO_GRADE TOKYO_WIND TOKYO_PRES TOKYO_R50_DIR TOKYO_R50_LONG TOKYO_R50_SHORT TOKYO_R30_DIR TOKYO_R30_LONG TOKYO_R30_SHORT TOKYO_LAND CMA_LAT CMA_LON CMA_CAT CMA_WIND CMA_PRES HKO_LAT HKO_LON HKO_CAT HKO_WIND HKO_PRES NEWDELHI_LAT NEWDELHI_LON NEWDELHI_GRADE NEWDELHI_WIND NEWDELHI_PRES NEWDELHI_CI NEWDELHI_DP NEWDELHI_POCI REUNION_LAT REUNION_LON REUNION_TYPE REUNION_WIND REUNION_PRES REUNION_TNUM REUNION_CI REUNION_RMW REUNION_R34_NE REUNION_R34_SE REUNION_R34_SW REUNION_R34_NW REUNION_R50_NE REUNION_R50_SE REUNION_R50_SW REUNION_R50_NW REUNION_R64_NE REUNION_R64_SE REUNION_R64_SW REUNION_R64_NW BOM_LAT BOM_LON BOM_TYPE BOM_WIND BOM_PRES BOM_TNUM BOM_CI BOM_RMW BOM_R34_NE BOM_R34_SE BOM_R34_SW BOM_R34_NW BOM_R50_NE BOM_R50_SE BOM_R50_SW BOM_R50_NW BOM_R64_NE BOM_R64_SE BOM_R64_SW BOM_R64_NW BOM_ROCI BOM_POCI BOM_EYE BOM_POS_METHOD BOM_PRES_METHOD NADI_LAT NADI_LON NADI_CAT NADI_WIND NADI_PRES WELLINGTON_LAT WELLINGTON_LON WELLINGTON_WIND WELLINGTON_PRES DS824_LAT DS824_LON DS824_STAGE DS824_WIND DS824_PRES TD9636_LAT TD9636_LON TD9636_STAGE TD9636_WIND TD9636_PRES TD9635_LAT TD9635_LON TD9635_WIND TD9635_PRES TD9635_ROCI NEUMANN_LAT NEUMANN_LON NEUMANN_CLASS NEUMANN_WIND NEUMANN_PRES MLC_LAT MLC_LON MLC_CLASS MLC_WIND MLC_PRES USA_GUST BOM_GUST BOM_GUST_PER REUNION_GUST REUNION_GUST_PER USA_SEAHGT USA_SEARAD_NE USA_SEARAD_SE USA_SEARAD_SW USA_SEARAD_NW STORM_SPEED STORM_DIR
1943231N14305 1943 55 NA NA NOT_NAMED 1943-08-19 06:00:00 TS 13.5000 -55.5000 50 hurdat_atl main 675 657 O_____________ hurdat_atl AL031943 13.5000 -55.5000 TS 50 0 9 313
1943231N14305 1943 55 NA NA NOT_NAMED 1943-08-19 09:00:00 TS 13.8101 -55.8473 main 663 645 P_____________ AL031943 13.8101 -55.8473 TS 52 0 9 311
1943231N14305 1943 55 NA NA NOT_NAMED 1943-08-19 12:00:00 TS 14.1000 -56.2000 55 hurdat_atl main 645 633 O_____________ hurdat_atl AL031943 14.1000 -56.2000 TS 55 0 9 308
1943231N14305 1943 55 NA NA NOT_NAMED 1943-08-19 15:00:00 TS 14.3575 -56.5576 main 632 623 P_____________ AL031943 14.3575 -56.5576 TS 57 0 8 306
1943231N14305 1943 55 NA NA NOT_NAMED 1943-08-19 18:00:00 TS 14.6000 -56.9000 60 hurdat_atl main 623 615 O_____________ hurdat_atl AL031943 14.6000 -56.9000 TS 60 0 8 308
1943231N14305 1943 55 NA NA NOT_NAMED 1943-08-19 21:00:00 TS 14.8499 -57.2076 main 617 617 P_____________ AL031943 14.8499 -57.2076 TS 62 0 8 311
1943231N14305 1943 55 NA NA NOT_NAMED 1943-08-20 00:00:00 TS 15.1000 -57.5000 65 hurdat_atl main 621 617 O_____________ hurdat_atl AL031943 15.1000 -57.5000 HU 65 1 8 311
1943231N14305 1943 55 NA NA NOT_NAMED 1943-08-20 03:00:00 TS 15.3425 -57.8001 main 620 620 P_____________ AL031943 15.3425 -57.8001 HU 67 1 8 311
1943231N14305 1943 55 NA NA NOT_NAMED 1943-08-20 06:00:00 TS 15.6000 -58.1000 70 hurdat_atl main 632 626 O_____________ hurdat_atl AL031943 15.6000 -58.1000 HU 70 1 8 313
1943231N14305 1943 55 NA NA NOT_NAMED 1943-08-20 09:00:00 TS 15.8850 -58.4001 main 646 642 P_____________ AL031943 15.8850 -58.4001 HU 70 1 8 316
1943231N14305 1943 55 NA NA NOT_NAMED 1943-08-20 12:00:00 TS 16.2000 -58.7000 70 hurdat_atl main 664 664 O_____________ hurdat_atl AL031943 16.2000 -58.7000 HU 70 1 9 319
1943231N14305 1943 55 NA NA NOT_NAMED 1943-08-20 15:00:00 TS 16.5424 -58.9926 main 684 683 P_____________ AL031943 16.5424 -58.9926 HU 72 1 9 321
1943231N14305 1943 55 NA NA NOT_NAMED 1943-08-20 18:00:00 TS 16.9000 -59.3000 75 hurdat_atl main 683 645 O_____________ hurdat_atl AL031943 16.9000 -59.3000 HU 75 1 9 319
1943231N14305 1943 55 NA NA NOT_NAMED 1943-08-20 21:00:00 TS 17.2499 -59.6351 main 645 596 P_____________ AL031943 17.2499 -59.6351 HU 77 1 10 316
1943231N14305 1943 55 NA NA NOT_NAMED 1943-08-21 00:00:00 TS 17.6000 -60.0000 80 hurdat_atl main 596 550 O_____________ hurdat_atl AL031943 17.6000 -60.0000 HU 80 1 10 314
1943231N14305 1943 55 NA NA NOT_NAMED 1943-08-21 03:00:00 TS 17.9500 -60.4001 main 550 506 P_____________ AL031943 17.9500 -60.4001 HU 82 1 10 313
1943231N14305 1943 55 NA NA NOT_NAMED 1943-08-21 06:00:00 TS 18.3000 -60.8000 85 hurdat_atl main 506 474 O_____________ hurdat_atl AL031943 18.3000 -60.8000 HU 85 2 10 314
1943231N14305 1943 55 NA NA NOT_NAMED 1943-08-21 09:00:00 TS 18.6424 -61.1577 main 464 437 P_____________ AL031943 18.6424 -61.1577 HU 85 2 10 317
1943231N14305 1943 55 NA NA NOT_NAMED 1943-08-21 12:00:00 TS 19.0000 -61.5000 85 hurdat_atl main 437 412 O_____________ hurdat_atl AL031943 19.0000 -61.5000 HU 85 2 10 318
1943231N14305 1943 55 NA NA NOT_NAMED 1943-08-21 15:00:00 TS 19.3850 -61.8576 main 405 390 P_____________ AL031943 19.3850 -61.8576 HU 87 2 10 320
1943231N14305 1943 55 NA NA NOT_NAMED 1943-08-21 18:00:00 TS 19.8000 -62.2000 90 hurdat_atl main 390 380 O_____________ hurdat_atl AL031943 19.8000 -62.2000 HU 90 2 11 324
1943231N14305 1943 55 NA NA NOT_NAMED 1943-08-21 21:00:00 TS 20.2424 -62.5077 main 382 379 P_____________ AL031943 20.2424 -62.5077 HU 90 2 11 328
1943231N14305 1943 55 NA NA NOT_NAMED 1943-08-22 00:00:00 TS 20.7000 -62.8000 90 hurdat_atl main 390 389 O_____________ hurdat_atl AL031943 20.7000 -62.8000 HU 90 2 11 329
1943231N14305 1943 55 NA NA NOT_NAMED 1943-08-22 03:00:00 TS 21.1499 -63.1002 main 399 399 P_____________ AL031943 21.1499 -63.1002 HU 92 2 11 328
1943231N14305 1943 55 NA NA NOT_NAMED 1943-08-22 06:00:00 TS 21.6000 -63.4000 95 hurdat_atl main 425 425 O_____________ hurdat_atl AL031943 21.6000 -63.4000 HU 95 2 11 328
1943231N14305 1943 55 NA NA NOT_NAMED 1943-08-22 09:00:00 TS 22.0425 -63.7077 main 448 448 P_____________ AL031943 22.0425 -63.7077 HU 95 2 11 328
1943231N14305 1943 55 NA NA NOT_NAMED 1943-08-22 12:00:00 TS 22.5000 -64.0000 95 hurdat_atl main 487 487 O_____________ hurdat_atl AL031943 22.5000 -64.0000 HU 95 2 11 332
1943231N14305 1943 55 NA NA NOT_NAMED 1943-08-22 15:00:00 TS 22.9924 -64.2577 main 531 531 P_____________ AL031943 22.9924 -64.2577 HU 97 3 11 335
1943231N14305 1943 55 NA NA NOT_NAMED 1943-08-22 18:00:00 TS 23.5000 -64.5000 100 hurdat_atl main 581 581 O_____________ hurdat_atl AL031943 23.5000 -64.5000 HU 100 3 11 336
1943231N14305 1943 55 NA NA NOT_NAMED 1943-08-22 21:00:00 TS 24.0000 -64.7502 main 631 631 P_____________ AL031943 24.0000 -64.7502 HU 102 3 11 335
1943231N14305 1943 55 NA NA NOT_NAMED 1943-08-23 00:00:00 TS 24.5000 -65.0000 105 hurdat_atl main 684 684 O_____________ hurdat_atl AL031943 24.5000 -65.0000 HU 105 3 11 336
1943231N14305 1943 55 NA NA NOT_NAMED 1943-08-23 03:00:00 TS 25.0000 -65.2502 main 738 738 P_____________ AL031943 25.0000 -65.2502 HU 105 3 11 336
1943231N14305 1943 55 NA NA NOT_NAMED 1943-08-23 06:00:00 TS 25.5000 -65.5000 105 hurdat_atl main 793 793 O_____________ hurdat_atl AL031943 25.5000 -65.5000 HU 105 3 11 336
1943231N14305 1943 55 NA NA NOT_NAMED 1943-08-23 09:00:00 TS 26.0075 -65.7576 main 830 830 P_____________ AL031943 26.0075 -65.7576 HU 107 3 11 336
1943231N14305 1943 55 NA NA NOT_NAMED 1943-08-23 12:00:00 TS 26.5000 -66.0000 110 hurdat_atl main 872 872 O_____________ hurdat_atl AL031943 26.5000 -66.0000 HU 110 3 10 337
1943231N14305 1943 55 NA NA NOT_NAMED 1943-08-23 15:00:00 TS 26.9650 -66.2152 main 913 913 P_____________ AL031943 26.9650 -66.2152 HU 112 3 10 338
1943231N14305 1943 55 NA NA NOT_NAMED 1943-08-23 18:00:00 TS 27.4000 -66.4000 115 hurdat_atl main 945 945 O_____________ hurdat_atl AL031943 27.4000 -66.4000 HU 115 4 9 340
1943231N14305 1943 55 NA NA NOT_NAMED 1943-08-23 21:00:00 TS 27.8075 -66.5577 main 979 979 P_____________ AL031943 27.8075 -66.5577 HU 115 4 8 342
1943231N14305 1943 55 NA NA NOT_NAMED 1943-08-24 00:00:00 TS 28.2000 -66.7000 115 hurdat_atl main 1007 1007 O_____________ hurdat_atl AL031943 28.2000 -66.7000 HU 115 4 8 342
1943231N14305 1943 55 NA NA NOT_NAMED 1943-08-24 03:00:00 TS 28.5850 -66.8502 main 1029 1029 P_____________ AL031943 28.5850 -66.8502 HU 117 4 8 342
1943231N14305 1943 55 NA NA NOT_NAMED 1943-08-24 06:00:00 TS 29.0000 -67.0000 120 hurdat_atl main 1059 1059 O_____________ hurdat_atl AL031943 29.0000 -67.0000 HU 120 4 9 343
1943231N14305 1943 55 NA NA NOT_NAMED 1943-08-24 09:00:00 TS 29.4625 -67.1576 main 1044 1000 P_____________ AL031943 29.4625 -67.1576 HU 120 4 10 345
1943231N14305 1943 55 NA NA NOT_NAMED 1943-08-24 12:00:00 TS 30.0000 -67.3000 120 hurdat_atl main 1000 949 O_____________ hurdat_atl AL031943 30.0000 -67.3000 HU 120 4 12 349
1943231N14305 1943 55 NA NA NOT_NAMED 1943-08-24 15:00:00 TS 30.6125 -67.4151 main 949 893 P_____________ AL031943 30.6125 -67.4151 HU 120 4 13 352
1943231N14305 1943 55 NA NA NOT_NAMED 1943-08-24 18:00:00 TS 31.3000 -67.5000 120 hurdat_atl main 893 841 O_____________ hurdat_atl AL031943 31.3000 -67.5000 HU 120 4 14 355
1943231N14305 1943 55 NA NA NOT_NAMED 1943-08-24 21:00:00 TS 32.0350 -67.5650 main 841 797 P_____________ AL031943 32.0350 -67.5650 HU 120 4 15 357
1943231N14305 1943 55 NA NA NOT_NAMED 1943-08-25 00:00:00 TS 32.8000 -67.6000 120 hurdat_atl main 797 765 O_____________ hurdat_atl AL031943 32.8000 -67.6000 HU 120 4 15 358
1943231N14305 1943 55 NA NA NOT_NAMED 1943-08-25 03:00:00 TS 33.5349 -67.6368 main 765 736 P_____________ AL031943 33.5349 -67.6368 HU 115 4 15 0
1943231N14305 1943 55 NA NA NOT_NAMED 1943-08-25 06:00:00 TS 34.3000 -67.6000 110 hurdat_atl main 736 721 O_____________ hurdat_atl AL031943 34.3000 -67.6000 HU 110 3 16 4
1943231N14305 1943 55 NA NA NOT_NAMED 1943-08-25 09:00:00 TS 35.1268 -67.5101 main 726 678 P_____________ AL031943 35.1268 -67.5101 HU 105 3 17 11
1943231N14305 1943 55 NA NA NOT_NAMED 1943-08-25 12:00:00 TS 36.0000 -67.2000 100 hurdat_atl main 678 614 O_____________ hurdat_atl AL031943 36.0000 -67.2000 HU 100 3 19 22
1943231N14305 1943 55 NA NA NOT_NAMED 1943-08-25 15:00:00 TS 36.8826 -66.6486 main 608 571 P_____________ AL031943 36.8826 -66.6486 HU 95 2 22 34
1943231N14305 1943 55 NA NA NOT_NAMED 1943-08-25 18:00:00 TS 37.8000 -65.7000 90 hurdat_atl main 567 538 O_____________ hurdat_atl AL031943 37.8000 -65.7000 HU 90 2 26 44
1943231N14305 1943 55 NA NA NOT_NAMED 1943-08-25 21:00:00 TS 38.7232 -64.3979 main 539 480 P_____________ AL031943 38.7232 -64.3979 HU 82 1 31 52
1943231N14305 1943 55 NA NA NOT_NAMED 1943-08-26 00:00:00 ET 39.7000 -62.6000 75 hurdat_atl main 478 472 O_____________ hurdat_atl AL031943 39.7000 -62.6000 EX 75 -4 38 58
1943231N14305 1943 55 NA NA NOT_NAMED 1943-08-26 03:00:00 ET 40.7386 -60.2697 main 489 459 P_____________ AL031943 40.7386 -60.2697 EX 70 -4 43 61
1943231N14305 1943 55 NA NA NOT_NAMED 1943-08-26 06:00:00 ET 41.8000 -57.7000 65 hurdat_atl main 466 443 O_____________ hurdat_atl AL031943 41.8000 -57.7000 EX 65 -4 43 61
1943231N14305 1943 55 NA NA NOT_NAMED 1943-08-26 09:00:00 ET 42.8816 -55.1877 main 430 311 P_____________ AL031943 42.8816 -55.1877 EX 62 -4 40 59
1943231N14305 1943 55 NA NA NOT_NAMED 1943-08-26 12:00:00 ET 43.9000 -53.0000 60 hurdat_atl main 300 244 O_____________ hurdat_atl AL031943 43.9000 -53.0000 EX 60 -4 33 55
1943231N14305 1943 55 NA NA NOT_NAMED 1943-08-26 15:00:00 ET 44.7636 -51.4939 main 239 234 P_____________ AL031943 44.7636 -51.4939 EX 57 -4 26 48
1943231N14305 1943 55 NA NA NOT_NAMED 1943-08-26 18:00:00 ET 45.6000 -50.3000 55 hurdat_atl main 246 246 O_____________ hurdat_atl AL031943 45.6000 -50.3000 EX 55 -4 25 47
1943231N14305 1943 55 NA NA NOT_NAMED 1943-08-26 21:00:00 ET 46.4540 -48.8937 main 300 300 P_____________ AL031943 46.4540 -48.8937 EX 52 -4 26 47
1943231N14305 1943 55 NA NA NOT_NAMED 1943-08-27 00:00:00 ET 47.4000 -47.5000 50 hurdat_atl main 381 381 O_____________ hurdat_atl AL031943 47.4000 -47.5000 EX 50 -4 28 42
1943231N14305 1943 55 NA NA NOT_NAMED 1943-08-27 03:00:00 ET 48.5105 -46.1458 main 493 493 P_____________ AL031943 48.5105 -46.1458 EX 47 -4 29 38
1943231N14305 1943 55 NA NA NOT_NAMED 1943-08-27 06:00:00 ET 49.7000 -44.8000 45 hurdat_atl main 608 608 O_____________ hurdat_atl AL031943 49.7000 -44.8000 EX 45 -4 29 37
1943231N14305 1943 55 NA NA NOT_NAMED 1943-08-27 09:00:00 ET 50.8660 -43.4256 main 736 736 P_____________ AL031943 50.8660 -43.4256 EX 45 -4 29 38
1943231N14305 1943 55 NA NA NOT_NAMED 1943-08-27 12:00:00 ET 52.0000 -42.0000 45 hurdat_atl main 859 O_____________ hurdat_atl AL031943 52.0000 -42.0000 EX 45 -4 29 38

About IBTrACS Database

This database is a web-friendly format of International Best Track Archive for Climate Stewardship (IBTrACS), a global best track data archive curated by NOAA dating back to 1842.

Updated: 2021-10-08